Bearsville, New York
Current Conditions -  °F | °C
As of 9:53 PM on Sunday 23 Nov 2014 (Local Time) from KPOU Reporting Station
Few Clouds Few Clouds  
Wind Chill: 44°   Ceiling: Unl
Heat Index: 47°   Visibility: 10mi
Dew Point: 28°   Wind: 7mph
Humidity: 48%   Direction: 130°SE
Pressure: 30.06"   Gusts: NA
Location:  42.04°N, 74.16°W
Report Text: KPOU 240253Z AUTO 13006KT 10SM FEW037 08/M02 A3006 RMK AO2 SLP178 T00831022 58014 TSNO
Loading
Personal Weather Stations






























Interactive Weather Map New forecast layout! Learn more

10-Day Weather Forecast

Advertisements
Track Severe Weather on mobile